Chili, WI (54420)

10:31 AM CDT on September 16, 2014 (GMT -0500)
Marshfield Municipal | Change Station
CLOSE
Current Station
Airport
Location: Marshfield,
Elevation: 1276 ft
Nearby Weather Stations

Elev 1276 ft 44.64 °N, 90.19 °W | Updated 37 minutes ago

Clear
Clear
55 °F
Feels Like 55 °F
N
8
Wind Variable Wind from West

Today
High -- | Low -- °F
--% Chance of Precip.
Yesterday
High -- | Low -- °F
Precip. -- in
6:41 AM 7:09 PM
Last Quarter, 44% visible
Pressure 30.19 in
Visibility 10.0 miles
Clouds Clear
Dew Point 43 °F
Humidity 64%
Rainfall 0.00 in
Snow Depth Not available.
UV 3 out of 12
Pollen 4.50 out of 12
Air Quality Not available.
Flu Activity Not available.
METAR KMFI 161454Z AUTO 28007KT 10SM CLR 13/06 A3017 RMK AO2 SLP224 T01280061 58006

More Conditions Fewer Conditions

Pressure 30.19 in
Visibility 10.0 miles
Clouds Clear
Dew Point 43 °F
Humidity 64%
Rainfall 0.00 in
Snow Depth Not available.
UV 3 out of 12
Pollen 4.50 out of 12
Air Quality Not available.
Flu Activity Not available.
METAR KMFI 161454Z AUTO 28007KT 10SM CLR 13/06 A3017 RMK AO2 SLP224 T01280061 58006

More Conditions Fewer Conditions

10-Day Weather Forecast

Almanac

Astronomy

Sep. 16, 2014 Rise Set
Actual Time 6:41 AM CDT 7:09 PM CDT
Civil Twilight 6:12 AM CDT 7:39 PM CDT
Nautical Twilight 5:37 AM CDT 8:13 PM CDT
Astronomical Twilight 5:01 AM CDT 8:49 PM CDT
Moon No Moon Rise 2:44 PM CDT
Length of Visible Light 13h 27m
Length of Day
12h 28m
Tomorrow will be 3m 4s shorter.
Last Quarter, 44% of the Moon is Illuminated
Today
Last Quarter
Sep 24
New
Oct 1
First Quarter
Oct 8
Full
Oct 15
Last Quarter

Today's Extremes

State Highs State Lows

Community

WunderPhotos

Upload Photos

1,753,810 photos uploaded!

Nearby

Snow Depth

Station Depth Elevation
No new snow has been reported.

Earthquake Activity

City Distance Mag. Time & Date
No recent earthquake activity has been reported nearby.
Minimum magnitude displayed is 2.5.

Coastal Water Temperatures

Place Temperature
No Stations Reporting

Nearby Weather Stations